Terminal Aerodrome Forecast
Issued by NWS

Current Version | Previous Version | Text Only | Print | Product List | Glossary On
Versions: 1 2 3 4 5 6 7 8 9 10 11 12 13
000
FTUS45 KVEF 011100
TAFBIH
TAF
KBIH 011137Z 0112/0212 18007KT P6SM VCSH BKN070
     FM011700 02006KT P6SM VCSH SCT080 BKN140
     FM012000 16006KT P6SM VCSH SCT080 BKN140
     FM020300 35006KT P6SM VCSH SCT080 BKN120
     FM020900 33004KT P6SM FEW080 SCT120=

USA.gov is the U.S. government's official web portal to all federal, state and local government web resources and services.